createdAt,value
2018-07-30T00:00:47.365Z,5.10
2018-07-30T00:01:51.046Z,4.80
2018-07-30T00:02:54.365Z,4.67
2018-07-30T00:03:57.682Z,5.00
2018-07-30T00:05:01.057Z,5.03
2018-07-30T00:06:04.397Z,5.00
2018-07-30T00:07:07.772Z,6.10
2018-07-30T00:08:11.236Z,5.70
2018-07-30T00:09:14.556Z,6.17
2018-07-30T00:10:17.902Z,5.43
2018-07-30T00:11:21.250Z,6.30
2018-07-30T00:12:24.587Z,5.33
2018-07-30T00:13:27.922Z,5.90
2018-07-30T00:14:31.259Z,5.43
2018-07-30T00:15:34.911Z,5.70
2018-07-30T00:16:38.230Z,5.70
2018-07-30T00:17:41.562Z,6.10
2018-07-30T00:18:44.618Z,6.43
2018-07-30T00:19:47.938Z,5.27
2018-07-30T00:20:51.287Z,5.00
2018-07-30T00:21:54.610Z,6.43
2018-07-30T00:22:58.211Z,5.97
2018-07-30T00:24:01.519Z,5.90
2018-07-30T00:25:05.023Z,6.00
2018-07-30T00:26:08.364Z,5.90
2018-07-30T00:27:11.687Z,6.30
2018-07-30T00:28:15.035Z,5.93
2018-07-30T00:29:18.387Z,5.60
2018-07-30T00:30:21.779Z,5.80
2018-07-30T00:31:25.144Z,5.50
2018-07-30T00:32:28.502Z,5.17
2018-07-30T00:33:31.810Z,5.97
2018-07-30T00:34:35.183Z,5.50
2018-07-30T00:35:38.525Z,5.83
2018-07-30T00:36:41.842Z,6.70
2018-07-30T00:37:45.206Z,6.00
2018-07-30T00:38:48.595Z,6.00
2018-07-30T00:39:51.919Z,6.23
2018-07-30T00:40:55.263Z,6.30
2018-07-30T00:41:58.618Z,5.70
2018-07-30T00:43:01.943Z,6.30
2018-07-30T00:44:05.466Z,6.30
2018-07-30T00:45:08.867Z,6.30
2018-07-30T00:46:12.233Z,5.47
2018-07-30T00:47:15.535Z,6.03
2018-07-30T00:48:18.928Z,6.50
2018-07-30T00:49:22.214Z,6.17
2018-07-30T00:50:31.978Z,5.40
2018-07-30T00:51:35.331Z,6.00
2018-07-30T00:52:38.926Z,5.13
2018-07-30T00:53:42.280Z,6.47
2018-07-30T00:54:45.614Z,6.27
2018-07-30T00:55:48.950Z,6.13
2018-07-30T00:56:52.347Z,6.10
2018-07-30T00:57:55.653Z,5.90
2018-07-30T00:58:59.026Z,7.10
2018-07-30T01:00:02.392Z,6.67
2018-07-30T01:01:05.759Z,6.77
2018-07-30T01:02:09.065Z,6.37
2018-07-30T01:03:12.427Z,6.20
2018-07-30T01:04:15.822Z,6.00
2018-07-30T01:05:19.147Z,6.40
2018-07-30T01:06:22.487Z,5.60
2018-07-30T01:07:25.844Z,6.00
2018-07-30T01:08:29.192Z,5.90
2018-07-30T01:09:32.551Z,5.93
2018-07-30T01:10:35.920Z,5.60
2018-07-30T01:11:39.355Z,6.57
2018-07-30T01:12:42.667Z,6.77
2018-07-30T01:13:46.243Z,5.27
2018-07-30T01:14:49.560Z,5.87
2018-07-30T01:15:52.922Z,5.70
2018-07-30T01:16:56.274Z,6.50
2018-07-30T01:17:59.601Z,6.67
2018-07-30T01:19:03.043Z,6.60
2018-07-30T01:20:06.530Z,5.90
2018-07-30T01:21:09.891Z,5.90
2018-07-30T01:22:13.237Z,5.73
2018-07-30T01:23:16.591Z,6.20
2018-07-30T01:24:20.321Z,5.83
2018-07-30T01:25:23.722Z,5.40
2018-07-30T01:26:28.683Z,6.47
2018-07-30T01:27:32.047Z,6.10
2018-07-30T01:28:35.422Z,6.10
2018-07-30T01:29:38.755Z,5.47
2018-07-30T01:30:42.120Z,6.30
2018-07-30T01:31:45.457Z,6.10
2018-07-30T01:32:48.793Z,5.93
2018-07-30T01:33:52.531Z,5.30
2018-07-30T01:34:55.858Z,5.00
2018-07-30T01:35:59.230Z,5.80
2018-07-30T01:37:02.586Z,6.70
2018-07-30T01:38:06.150Z,6.37
2018-07-30T01:39:09.509Z,6.67
2018-07-30T01:40:12.859Z,6.40
2018-07-30T01:41:16.243Z,6.90
2018-07-30T01:42:19.634Z,6.13
2018-07-30T01:43:22.996Z,5.77
2018-07-30T01:44:26.343Z,6.37
2018-07-30T01:45:29.688Z,6.50
2018-07-30T01:46:33.038Z,6.43
2018-07-30T01:47:36.410Z,6.83
2018-07-30T01:48:39.729Z,6.33
2018-07-30T01:49:43.102Z,5.93
2018-07-30T01:50:46.495Z,5.95
2018-07-30T01:51:49.839Z,5.53
2018-07-30T01:52:53.148Z,6.47
2018-07-30T01:53:56.512Z,6.15
2018-07-30T01:54:59.845Z,6.03
2018-07-30T01:56:03.226Z,6.37
2018-07-30T01:57:06.583Z,6.13
2018-07-30T01:58:09.902Z,6.72
2018-07-30T01:59:13.360Z,6.30
2018-07-30T02:00:16.720Z,6.87
2018-07-30T02:01:20.112Z,5.97
2018-07-30T02:02:23.459Z,6.30
2018-07-30T02:03:26.767Z,6.90
2018-07-30T02:04:30.147Z,6.87
2018-07-30T02:05:33.475Z,6.00
2018-07-30T02:06:36.794Z,6.40
2018-07-30T02:07:41.154Z,6.80
2018-07-30T02:08:44.514Z,6.27
2018-07-30T02:09:47.888Z,6.20
2018-07-30T02:10:51.247Z,6.33
2018-07-30T02:11:54.634Z,6.55
2018-07-30T02:12:57.996Z,5.40
2018-07-30T02:14:01.347Z,5.20
2018-07-30T02:15:04.742Z,7.10
2018-07-30T02:16:08.050Z,6.13
2018-07-30T02:17:11.380Z,5.70
2018-07-30T02:18:14.725Z,6.03
2018-07-30T02:19:18.058Z,6.50
2018-07-30T02:20:21.437Z,6.40
2018-07-30T02:21:24.802Z,5.27
2018-07-30T02:22:28.121Z,6.57
2018-07-30T02:23:31.485Z,6.03
2018-07-30T02:24:34.837Z,6.25
2018-07-30T02:25:38.159Z,6.15
2018-07-30T02:26:41.526Z,6.47
2018-07-30T02:27:44.841Z,6.08
2018-07-30T02:28:48.200Z,5.83
2018-07-30T02:29:51.538Z,5.90
2018-07-30T02:30:54.870Z,6.63
2018-07-30T02:31:58.256Z,6.22
2018-07-30T02:33:01.635Z,6.00
2018-07-30T02:34:05.183Z,5.87
2018-07-30T02:35:09.150Z,6.58
2018-07-30T02:36:12.502Z,6.30
2018-07-30T02:37:15.929Z,6.65
2018-07-30T02:38:19.265Z,6.37
2018-07-30T02:39:22.618Z,6.50
2018-07-30T02:40:25.959Z,6.17
2018-07-30T02:41:29.360Z,6.40
2018-07-30T02:42:32.795Z,7.05
2018-07-30T02:43:36.088Z,6.92
2018-07-30T02:44:39.411Z,6.35
2018-07-30T02:45:42.788Z,7.30
2018-07-30T02:46:46.138Z,6.53
2018-07-30T02:47:49.455Z,6.17
2018-07-30T02:48:52.783Z,7.47
2018-07-30T02:49:56.108Z,6.53
2018-07-30T02:50:59.471Z,5.90
2018-07-30T02:52:02.791Z,6.45
2018-07-30T02:53:06.114Z,6.87
2018-07-30T02:54:09.723Z,7.22
2018-07-30T02:55:13.091Z,7.22
2018-07-30T02:56:16.431Z,6.75
2018-07-30T02:57:19.779Z,6.08
2018-07-30T02:58:23.163Z,6.83
2018-07-30T02:59:26.505Z,6.40
2018-07-30T03:00:29.852Z,6.22
2018-07-30T03:01:33.178Z,6.42
2018-07-30T03:02:36.544Z,6.67
2018-07-30T03:03:39.905Z,6.62
2018-07-30T03:04:43.256Z,6.55
2018-07-30T03:05:46.608Z,6.45
2018-07-30T03:06:49.954Z,6.45
2018-07-30T03:07:53.287Z,6.37
2018-07-30T03:08:56.661Z,6.20
2018-07-30T03:09:59.996Z,7.37
2018-07-30T03:11:03.355Z,6.67
2018-07-30T03:12:06.755Z,6.78
2018-07-30T03:13:10.278Z,6.65
2018-07-30T03:14:13.652Z,6.87
2018-07-30T03:15:16.970Z,6.30
2018-07-30T03:16:20.314Z,6.40
2018-07-30T03:17:23.674Z,5.85
2018-07-30T03:18:27.015Z,6.65
2018-07-30T03:19:30.376Z,7.20
2018-07-30T03:20:33.696Z,5.72
2018-07-30T03:21:37.058Z,6.00
2018-07-30T03:22:40.410Z,6.80
2018-07-30T03:23:43.819Z,6.35
2018-07-30T03:24:47.170Z,6.03
2018-07-30T03:25:50.522Z,7.35
2018-07-30T03:26:53.838Z,6.33
2018-07-30T03:27:57.244Z,6.95
2018-07-30T03:29:00.616Z,6.50
2018-07-30T03:30:04.838Z,6.25
2018-07-30T03:31:08.240Z,6.95
2018-07-30T03:32:11.592Z,6.60
2018-07-30T03:33:14.920Z,6.10
2018-07-30T03:34:18.308Z,6.70
2018-07-30T03:35:21.646Z,6.40
2018-07-30T03:36:24.973Z,7.15
2018-07-30T03:37:28.322Z,6.58
2018-07-30T03:38:31.684Z,7.05
2018-07-30T03:39:35.004Z,6.58
2018-07-30T03:40:38.361Z,7.00
2018-07-30T03:41:41.735Z,6.95
2018-07-30T03:42:45.059Z,7.42
2018-07-30T03:43:48.404Z,7.33
2018-07-30T03:44:51.718Z,6.17
2018-07-30T03:45:55.080Z,6.83
2018-07-30T03:46:58.424Z,6.80
2018-07-30T03:48:01.757Z,6.45
2018-07-30T03:49:05.154Z,6.62
2018-07-30T03:50:08.492Z,6.87
2018-07-30T03:51:11.920Z,6.20
2018-07-30T03:52:15.245Z,6.75
2018-07-30T03:53:18.585Z,6.92
2018-07-30T03:54:21.915Z,7.20
2018-07-30T03:55:25.229Z,6.87
2018-07-30T03:56:28.620Z,6.78
2018-07-30T03:57:31.945Z,6.80
2018-07-30T03:58:35.300Z,6.67
2018-07-30T03:59:38.608Z,6.58
2018-07-30T04:00:41.961Z,5.87
2018-07-30T04:01:45.322Z,6.45
2018-07-30T04:02:48.675Z,6.75
2018-07-30T04:03:52.050Z,7.22
2018-07-30T04:04:55.441Z,6.17
2018-07-30T04:05:58.875Z,6.12
2018-07-30T04:07:02.200Z,7.28
2018-07-30T04:08:05.524Z,6.42
2018-07-30T04:09:09.106Z,6.87
2018-07-30T04:10:12.458Z,7.22
2018-07-30T04:11:15.791Z,6.17
2018-07-30T04:12:19.127Z,6.53
2018-07-30T04:13:22.430Z,6.05
2018-07-30T04:14:25.755Z,7.20
2018-07-30T04:15:29.146Z,7.00
2018-07-30T04:16:36.687Z,6.80
2018-07-30T04:17:40.000Z,6.05
2018-07-30T04:18:43.311Z,6.28
2018-07-30T04:19:46.626Z,6.40
2018-07-30T04:20:49.985Z,7.10
2018-07-30T04:21:54.691Z,6.50
2018-07-30T04:22:58.075Z,6.60
2018-07-30T04:24:01.400Z,6.37
2018-07-30T04:25:05.136Z,7.10
2018-07-30T04:26:08.507Z,6.72
2018-07-30T04:27:11.851Z,6.17
2018-07-30T04:28:15.158Z,7.25
2018-07-30T04:29:18.496Z,7.50
2018-07-30T04:30:21.815Z,7.37
2018-07-30T04:31:25.213Z,6.97
2018-07-30T04:32:28.540Z,6.97
2018-07-30T04:33:31.847Z,7.22
2018-07-30T04:34:35.165Z,6.70
2018-07-30T04:35:38.482Z,6.85
2018-07-30T04:36:41.810Z,7.28
2018-07-30T04:37:45.139Z,7.17
2018-07-30T04:38:48.500Z,7.00
2018-07-30T04:39:51.815Z,7.40
2018-07-30T04:40:55.184Z,6.55
2018-07-30T04:41:58.570Z,6.08
2018-07-30T04:43:02.174Z,6.35
2018-07-30T04:44:05.646Z,7.20
2018-07-30T04:45:15.695Z,7.75
2018-07-30T04:46:19.095Z,7.05
2018-07-30T04:47:22.443Z,6.95
2018-07-30T04:48:25.774Z,6.87
2018-07-30T04:49:29.122Z,6.65
2018-07-30T04:50:32.504Z,7.00
2018-07-30T04:51:36.653Z,7.00
2018-07-30T04:52:40.014Z,6.65
2018-07-30T04:53:43.373Z,7.12
2018-07-30T04:54:46.698Z,7.10
2018-07-30T04:55:50.049Z,6.35
2018-07-30T04:56:53.427Z,6.70
2018-07-30T04:57:56.810Z,6.42
2018-07-30T04:59:00.159Z,6.95
2018-07-30T05:00:03.567Z,6.58
2018-07-30T05:01:06.916Z,7.20
2018-07-30T05:02:10.305Z,6.87
2018-07-30T05:03:13.407Z,6.80
2018-07-30T05:04:16.722Z,7.53
2018-07-30T05:05:20.099Z,7.12
2018-07-30T05:06:23.440Z,8.00
2018-07-30T05:07:26.807Z,7.87
2018-07-30T05:08:30.175Z,8.35
2018-07-30T05:09:33.504Z,7.65
2018-07-30T05:10:36.826Z,9.63
2018-07-30T05:11:40.155Z,8.00
2018-07-30T05:12:43.535Z,7.70
2018-07-30T05:13:47.475Z,8.63
2018-07-30T05:14:50.879Z,8.15
2018-07-30T05:15:54.249Z,8.20
2018-07-30T05:16:57.578Z,8.08
2018-07-30T05:18:00.890Z,8.10
2018-07-30T05:19:04.239Z,7.70
2018-07-30T05:20:07.586Z,8.63
2018-07-30T05:21:11.279Z,8.53
2018-07-30T05:22:14.652Z,8.50
2018-07-30T05:23:17.999Z,8.70
2018-07-30T05:24:21.469Z,7.93
2018-07-30T05:25:24.835Z,8.53
2018-07-30T05:26:28.182Z,8.65
2018-07-30T05:27:31.519Z,7.67
2018-07-30T05:28:34.859Z,9.17
2018-07-30T05:29:38.232Z,9.83
2018-07-30T05:30:41.591Z,7.63
2018-07-30T05:31:44.991Z,8.63
2018-07-30T05:32:48.280Z,7.90
2018-07-30T05:33:51.778Z,8.90
2018-07-30T05:34:55.130Z,8.20
2018-07-30T05:35:58.500Z,8.40
2018-07-30T05:37:01.840Z,7.83
2018-07-30T05:38:05.346Z,9.03
2018-07-30T05:39:10.009Z,8.30
2018-07-30T05:40:13.309Z,7.77
2018-07-30T05:41:16.650Z,7.53
2018-07-30T05:42:19.975Z,8.33
2018-07-30T05:43:23.303Z,8.40
2018-07-30T05:44:26.672Z,8.07
2018-07-30T05:45:29.987Z,8.80
2018-07-30T05:46:33.310Z,8.03
2018-07-30T05:47:36.630Z,8.40
2018-07-30T05:48:39.978Z,8.17
2018-07-30T05:49:43.319Z,8.30
2018-07-30T05:50:46.678Z,8.07
2018-07-30T05:51:50.011Z,7.67
2018-07-30T05:52:53.463Z,7.70
2018-07-30T05:53:56.786Z,8.10
2018-07-30T05:55:00.133Z,8.13
2018-07-30T05:56:03.691Z,7.73
2018-07-30T05:57:07.090Z,7.90
2018-07-30T05:58:10.431Z,7.90
2018-07-30T05:59:13.746Z,7.43
2018-07-30T06:00:17.123Z,7.27
2018-07-30T06:01:20.464Z,7.47
2018-07-30T06:02:23.837Z,8.33
2018-07-30T06:03:27.180Z,8.63
2018-07-30T06:04:30.552Z,7.47
2018-07-30T06:05:33.931Z,7.40
2018-07-30T06:06:37.231Z,7.50
2018-07-30T06:07:40.658Z,7.50
2018-07-30T06:08:43.994Z,8.33
2018-07-30T06:09:47.297Z,8.30
2018-07-30T06:10:50.629Z,8.17
2018-07-30T06:11:53.971Z,7.57
2018-07-30T06:12:57.334Z,8.07
2018-07-30T06:14:00.680Z,7.63
2018-07-30T06:15:04.688Z,8.07
2018-07-30T06:16:08.064Z,7.47
2018-07-30T06:17:11.468Z,7.70
2018-07-30T06:18:14.822Z,7.23
2018-07-30T06:19:18.127Z,7.50
2018-07-30T06:20:21.475Z,7.80
2018-07-30T06:21:24.886Z,7.27
2018-07-30T06:22:28.266Z,7.40
2018-07-30T06:23:31.623Z,6.37
2018-07-30T06:24:34.968Z,7.17
2018-07-30T06:25:38.307Z,6.63
2018-07-30T06:26:41.634Z,7.00
2018-07-30T06:27:44.980Z,7.00
2018-07-30T06:28:48.350Z,7.73
2018-07-30T06:29:51.691Z,7.10
2018-07-30T06:30:55.044Z,7.17
2018-07-30T06:31:58.367Z,7.00
2018-07-30T06:33:01.739Z,6.90
2018-07-30T06:34:05.075Z,6.90
2018-07-30T06:35:08.902Z,6.23
2018-07-30T06:36:12.246Z,7.13
2018-07-30T06:37:16.096Z,7.30
2018-07-30T06:38:19.461Z,7.10
2018-07-30T06:39:23.027Z,5.83
2018-07-30T06:40:26.354Z,7.20
2018-07-30T06:41:29.694Z,7.60
2018-07-30T06:42:33.055Z,7.60
2018-07-30T06:43:36.367Z,7.33
2018-07-30T06:44:39.722Z,7.47
2018-07-30T06:45:43.037Z,7.43
2018-07-30T06:46:46.368Z,6.77
2018-07-30T06:47:49.714Z,7.50
2018-07-30T06:48:53.627Z,6.70
2018-07-30T06:49:56.967Z,7.33
2018-07-30T06:51:00.314Z,6.83
2018-07-30T06:52:03.682Z,7.77
2018-07-30T06:53:07.084Z,7.30
2018-07-30T06:54:10.434Z,8.17
2018-07-30T06:55:13.762Z,7.80
2018-07-30T06:56:17.115Z,7.50
2018-07-30T06:57:20.464Z,6.60
2018-07-30T06:58:23.821Z,6.30
2018-07-30T06:59:27.136Z,7.10
2018-07-30T07:00:30.543Z,7.10
2018-07-30T07:01:33.865Z,7.40
2018-07-30T07:02:37.271Z,6.50
2018-07-30T07:03:40.611Z,6.83
2018-07-30T07:04:43.931Z,7.10
2018-07-30T07:05:47.282Z,6.30
2018-07-30T07:06:50.680Z,6.50
2018-07-30T07:07:54.025Z,6.27
2018-07-30T07:08:57.391Z,6.30
2018-07-30T07:10:00.708Z,6.97
2018-07-30T07:11:04.051Z,6.23
2018-07-30T07:12:07.407Z,5.57
2018-07-30T07:13:10.773Z,6.50
2018-07-30T07:14:14.123Z,6.33
2018-07-30T07:15:17.482Z,6.33
2018-07-30T07:16:20.814Z,6.30
2018-07-30T07:17:24.160Z,6.10
2018-07-30T07:18:27.483Z,7.40
2018-07-30T07:19:30.814Z,6.40
2018-07-30T07:20:34.189Z,6.00
2018-07-30T07:21:37.581Z,6.90
2018-07-30T07:22:40.942Z,5.67
2018-07-30T07:23:44.321Z,6.40
2018-07-30T07:24:47.713Z,7.13
2018-07-30T07:25:51.099Z,6.47
2018-07-30T07:26:54.471Z,6.97
2018-07-30T07:27:57.914Z,6.13
2018-07-30T07:29:01.227Z,5.93
2018-07-30T07:30:06.003Z,6.27
2018-07-30T07:31:09.306Z,5.70
2018-07-30T07:32:12.660Z,5.97
2018-07-30T07:33:16.001Z,6.30
2018-07-30T07:34:19.417Z,5.63
2018-07-30T07:35:22.767Z,6.00
2018-07-30T07:36:26.093Z,6.20
2018-07-30T07:37:29.411Z,6.33
2018-07-30T07:38:32.755Z,6.03
2018-07-30T07:39:36.132Z,5.90
2018-07-30T07:40:39.463Z,6.00
2018-07-30T07:41:42.794Z,7.30
2018-07-30T07:42:46.148Z,5.90
2018-07-30T07:43:49.488Z,6.10
2018-07-30T07:44:52.848Z,5.53
2018-07-30T07:45:56.241Z,5.40
2018-07-30T07:46:59.527Z,5.53
2018-07-30T07:48:02.883Z,5.70
2018-07-30T07:49:06.229Z,5.77
2018-07-30T07:50:09.765Z,5.07
2018-07-30T07:51:13.030Z,5.97
2018-07-30T07:52:16.367Z,5.37
2018-07-30T07:53:19.758Z,5.20
2018-07-30T07:54:23.124Z,5.40
2018-07-30T07:55:26.456Z,4.93
2018-07-30T07:56:29.791Z,5.20
2018-07-30T07:57:33.137Z,4.93
2018-07-30T07:58:36.516Z,5.23
2018-07-30T07:59:39.846Z,4.67
2018-07-30T08:00:43.193Z,5.33
2018-07-30T08:01:46.531Z,4.80
2018-07-30T08:02:49.938Z,4.93
2018-07-30T08:03:53.336Z,5.50
2018-07-30T08:04:56.612Z,5.50
2018-07-30T08:05:59.940Z,5.60
2018-07-30T08:07:03.259Z,5.83
2018-07-30T08:08:06.635Z,5.70
2018-07-30T08:09:11.042Z,6.60
2018-07-30T08:10:14.380Z,5.90
2018-07-30T08:11:17.689Z,5.80
2018-07-30T08:12:21.028Z,5.80
2018-07-30T08:13:24.410Z,5.80
2018-07-30T08:14:27.732Z,6.43
2018-07-30T08:15:31.080Z,5.40
2018-07-30T08:16:34.461Z,5.87
2018-07-30T08:17:37.881Z,6.00
2018-07-30T08:18:41.214Z,6.33
2018-07-30T08:19:44.556Z,5.33
2018-07-30T08:20:47.884Z,5.53
2018-07-30T08:21:51.240Z,5.77
2018-07-30T08:22:54.578Z,6.30
2018-07-30T08:23:57.951Z,5.43
2018-07-30T08:25:01.285Z,6.00
2018-07-30T08:26:04.653Z,5.23
2018-07-30T08:27:07.963Z,5.37
2018-07-30T08:28:11.288Z,5.23
2018-07-30T08:29:14.590Z,5.00
2018-07-30T08:30:17.950Z,5.70
2018-07-30T08:31:21.327Z,4.70
2018-07-30T08:32:24.656Z,5.07
2018-07-30T08:33:28.005Z,5.67
2018-07-30T08:34:31.379Z,6.00
2018-07-30T08:35:34.720Z,6.00
2018-07-30T08:36:38.071Z,4.70
2018-07-30T08:37:41.395Z,5.40
2018-07-30T08:38:44.763Z,5.20
2018-07-30T08:39:48.096Z,5.47
2018-07-30T08:40:51.432Z,4.97
2018-07-30T08:41:54.546Z,4.80
2018-07-30T08:42:57.877Z,5.47
2018-07-30T08:44:01.190Z,5.60
2018-07-30T08:45:05.079Z,4.23
2018-07-30T08:46:08.427Z,5.20
2018-07-30T08:47:11.819Z,4.53
2018-07-30T08:48:15.219Z,3.90
2018-07-30T08:49:18.551Z,4.70
2018-07-30T08:50:21.870Z,4.83
2018-07-30T08:51:25.199Z,4.67
2018-07-30T08:52:28.531Z,4.70
2018-07-30T08:53:31.879Z,4.23
2018-07-30T08:54:35.198Z,5.00
2018-07-30T08:55:38.503Z,4.03
2018-07-30T08:56:41.855Z,5.00
2018-07-30T08:57:45.177Z,4.37
2018-07-30T08:58:48.600Z,4.53
2018-07-30T08:59:52.057Z,4.90
2018-07-30T09:00:55.386Z,5.00
2018-07-30T09:01:58.707Z,4.73
2018-07-30T09:03:02.046Z,4.67
2018-07-30T09:04:05.454Z,4.43
2018-07-30T09:05:09.299Z,5.50
2018-07-30T09:06:12.691Z,4.30
2018-07-30T09:07:16.068Z,4.83
2018-07-30T09:08:19.394Z,4.50
2018-07-30T09:09:22.791Z,4.50
2018-07-30T09:10:26.126Z,4.90
2018-07-30T09:11:29.471Z,4.53
2018-07-30T09:12:32.873Z,4.43
2018-07-30T09:13:36.136Z,4.47
2018-07-30T09:14:39.784Z,4.43
2018-07-30T09:15:43.135Z,4.67
2018-07-30T09:16:46.446Z,3.63
2018-07-30T09:17:49.759Z,3.40
2018-07-30T09:18:53.106Z,3.50
2018-07-30T09:19:56.485Z,3.80
2018-07-30T09:20:59.847Z,3.70
2018-07-30T09:22:03.179Z,3.33
2018-07-30T09:23:06.543Z,3.73
2018-07-30T09:24:09.866Z,4.00
2018-07-30T09:25:13.236Z,4.00
2018-07-30T09:26:16.550Z,3.60
2018-07-30T09:27:19.890Z,4.13
2018-07-30T09:28:23.286Z,3.30
2018-07-30T09:29:26.650Z,3.97
2018-07-30T09:30:30.027Z,3.57
2018-07-30T09:31:33.350Z,4.47
2018-07-30T09:32:36.750Z,3.87
2018-07-30T09:33:40.056Z,3.60
2018-07-30T09:34:43.399Z,4.27
2018-07-30T09:35:46.709Z,3.83
2018-07-30T09:36:50.074Z,4.17
2018-07-30T09:37:53.487Z,3.87
2018-07-30T09:38:56.816Z,3.50
2018-07-30T09:40:00.138Z,3.67
2018-07-30T09:41:03.468Z,3.90
2018-07-30T09:42:06.975Z,3.57
2018-07-30T09:43:10.364Z,3.50
2018-07-30T09:44:13.682Z,3.57
2018-07-30T09:45:17.017Z,3.77
2018-07-30T09:46:20.325Z,3.50
2018-07-30T09:47:23.650Z,3.13
2018-07-30T09:48:26.991Z,3.73
2018-07-30T09:49:30.370Z,3.60
2018-07-30T09:50:33.720Z,4.00
2018-07-30T09:51:37.099Z,3.80
2018-07-30T09:52:40.417Z,4.00
2018-07-30T09:53:43.726Z,3.77
2018-07-30T09:54:47.115Z,3.23
2018-07-30T09:55:50.430Z,4.00
2018-07-30T09:56:53.766Z,3.80
2018-07-30T09:57:57.071Z,4.50
2018-07-30T09:59:00.388Z,3.60
2018-07-30T10:00:03.807Z,4.27
2018-07-30T10:01:14.240Z,3.17
2018-07-30T10:02:17.549Z,4.13
2018-07-30T10:03:20.902Z,3.73
2018-07-30T10:04:24.214Z,3.47
2018-07-30T10:05:27.567Z,3.50
2018-07-30T10:06:30.887Z,3.43
2018-07-30T10:07:34.298Z,3.57
2018-07-30T10:08:37.650Z,4.20
2018-07-30T10:09:40.982Z,3.50
2018-07-30T10:10:44.330Z,3.37
2018-07-30T10:11:47.709Z,3.80
2018-07-30T10:12:51.062Z,3.87
2018-07-30T10:13:54.470Z,3.57
2018-07-30T10:14:57.785Z,3.63
2018-07-30T10:16:01.109Z,3.57
2018-07-30T10:17:04.489Z,4.00
2018-07-30T10:18:07.905Z,3.93
2018-07-30T10:19:11.189Z,3.70
2018-07-30T10:20:14.516Z,3.23
2018-07-30T10:21:17.841Z,3.90
2018-07-30T10:22:21.166Z,4.07
2018-07-30T10:23:24.512Z,3.70
2018-07-30T10:24:27.866Z,3.83
2018-07-30T10:25:31.199Z,3.77
2018-07-30T10:26:34.514Z,3.47
2018-07-30T10:27:37.847Z,3.80
2018-07-30T10:28:41.184Z,4.00
2018-07-30T10:29:44.547Z,3.67
2018-07-30T10:30:48.063Z,3.77
2018-07-30T10:31:51.333Z,4.60
2018-07-30T10:32:54.700Z,3.80
2018-07-30T10:33:58.047Z,3.80
2018-07-30T10:35:01.358Z,4.10
2018-07-30T10:36:04.690Z,3.63
2018-07-30T10:37:08.047Z,3.40
2018-07-30T10:38:11.372Z,3.30
2018-07-30T10:39:14.415Z,3.40
2018-07-30T10:40:17.760Z,4.30
2018-07-30T10:41:21.140Z,3.80
2018-07-30T10:42:24.507Z,3.60
2018-07-30T10:43:27.837Z,3.53
2018-07-30T10:44:31.161Z,3.60
2018-07-30T10:45:34.506Z,3.60
2018-07-30T10:46:37.867Z,3.87
2018-07-30T10:47:41.229Z,3.27
2018-07-30T10:48:44.566Z,3.20
2018-07-30T10:49:48.047Z,3.40
2018-07-30T10:50:51.419Z,3.50
2018-07-30T10:51:54.760Z,3.43
2018-07-30T10:52:58.151Z,2.93
2018-07-30T10:54:01.499Z,3.40
2018-07-30T10:55:04.877Z,3.63
2018-07-30T10:56:08.223Z,3.70
2018-07-30T10:57:11.627Z,3.47
2018-07-30T10:58:14.976Z,2.90
2018-07-30T10:59:18.281Z,3.73
2018-07-30T11:00:21.676Z,3.40
2018-07-30T11:01:25.027Z,3.40
2018-07-30T11:02:28.346Z,3.27
2018-07-30T11:03:31.674Z,3.20
2018-07-30T11:04:39.180Z,3.60
2018-07-30T11:05:42.536Z,3.13
2018-07-30T11:06:45.895Z,3.33
2018-07-30T11:07:49.282Z,3.37
2018-07-30T11:08:52.555Z,3.33
2018-07-30T11:09:55.887Z,2.67
2018-07-30T11:10:59.256Z,3.27
2018-07-30T11:12:02.797Z,3.53
2018-07-30T11:13:06.220Z,3.90
2018-07-30T11:14:09.552Z,3.57
2018-07-30T11:15:12.954Z,3.27
2018-07-30T11:16:16.295Z,3.30
2018-07-30T11:17:19.639Z,3.40
2018-07-30T11:18:22.965Z,3.23
2018-07-30T11:19:26.327Z,3.20
2018-07-30T11:20:29.638Z,3.40
2018-07-30T11:21:32.971Z,3.37
2018-07-30T11:22:36.315Z,3.77
2018-07-30T11:23:39.633Z,3.13
2018-07-30T11:24:43.015Z,3.67
2018-07-30T11:25:46.351Z,3.30
2018-07-30T11:26:56.212Z,3.70
2018-07-30T11:27:59.609Z,3.53
2018-07-30T11:29:02.907Z,3.33
2018-07-30T11:30:06.555Z,3.53
2018-07-30T11:31:09.870Z,3.43
2018-07-30T11:32:13.181Z,3.47
2018-07-30T11:33:16.539Z,3.80
2018-07-30T11:34:19.858Z,3.77
2018-07-30T11:35:23.259Z,3.30
2018-07-30T11:36:26.587Z,3.67
2018-07-30T11:37:29.919Z,3.10
2018-07-30T11:38:33.358Z,3.40
2018-07-30T11:39:36.783Z,3.57
2018-07-30T11:40:40.111Z,3.10
2018-07-30T11:41:43.507Z,3.30
2018-07-30T11:42:46.866Z,3.57
2018-07-30T11:43:50.158Z,3.50
2018-07-30T11:44:53.559Z,3.37
2018-07-30T11:45:56.858Z,3.50
2018-07-30T11:47:00.198Z,3.03
2018-07-30T11:48:03.544Z,3.20
2018-07-30T11:49:06.880Z,3.23
2018-07-30T11:50:10.253Z,3.33
2018-07-30T11:51:13.578Z,3.20
2018-07-30T11:52:16.915Z,3.43
2018-07-30T11:53:20.238Z,3.90
2018-07-30T11:54:23.642Z,4.20
2018-07-30T11:55:27.367Z,3.93
2018-07-30T11:56:30.799Z,3.23
2018-07-30T11:57:34.118Z,3.07
2018-07-30T11:58:37.202Z,3.37
2018-07-30T11:59:40.530Z,4.03
2018-07-30T12:00:43.932Z,3.50
2018-07-30T12:01:47.345Z,3.30
2018-07-30T12:02:50.691Z,3.20
2018-07-30T12:03:54.352Z,3.10
2018-07-30T12:04:57.677Z,3.47
2018-07-30T12:06:01.040Z,3.80
2018-07-30T12:07:04.413Z,3.47
2018-07-30T12:08:07.762Z,3.30
2018-07-30T12:09:11.109Z,3.00
2018-07-30T12:10:14.509Z,3.80
2018-07-30T12:11:17.839Z,3.90
2018-07-30T12:12:21.187Z,3.57
2018-07-30T12:13:24.562Z,4.17
2018-07-30T12:14:27.846Z,3.30
2018-07-30T12:15:31.251Z,3.97
2018-07-30T12:16:34.602Z,3.40
2018-07-30T12:17:37.922Z,3.43
2018-07-30T12:18:41.255Z,3.00
2018-07-30T12:19:44.570Z,3.67
2018-07-30T12:20:47.930Z,3.67
2018-07-30T12:21:51.396Z,3.60
2018-07-30T12:22:54.710Z,3.47
2018-07-30T12:23:58.042Z,3.10
2018-07-30T12:25:01.387Z,3.00
2018-07-30T12:26:04.730Z,3.90
2018-07-30T12:27:08.080Z,3.30
2018-07-30T12:28:11.447Z,3.77
2018-07-30T12:29:14.885Z,3.30
2018-07-30T12:30:18.192Z,3.47
2018-07-30T12:31:21.491Z,3.20
2018-07-30T12:32:24.831Z,3.53
2018-07-30T12:33:28.199Z,3.50
2018-07-30T12:34:31.522Z,3.50
2018-07-30T12:35:34.836Z,3.20
2018-07-30T12:36:38.230Z,3.67
2018-07-30T12:37:41.574Z,3.40
2018-07-30T12:38:44.908Z,3.60
2018-07-30T12:39:48.334Z,3.30
2018-07-30T12:40:51.671Z,3.10
2018-07-30T12:41:55.145Z,3.37
2018-07-30T12:42:58.494Z,3.30
2018-07-30T12:44:01.811Z,2.90
2018-07-30T12:45:05.397Z,3.67
2018-07-30T12:46:08.694Z,3.40
2018-07-30T12:47:12.054Z,3.20
2018-07-30T12:48:15.519Z,3.27
2018-07-30T12:49:18.557Z,3.70
2018-07-30T12:50:21.943Z,3.40
2018-07-30T12:51:25.286Z,3.10
2018-07-30T12:52:28.657Z,2.90
2018-07-30T12:53:31.982Z,3.20
2018-07-30T12:54:35.292Z,3.40
2018-07-30T12:55:38.881Z,3.23
2018-07-30T12:56:42.199Z,2.97
2018-07-30T12:57:45.547Z,3.50
2018-07-30T12:58:48.898Z,3.17
2018-07-30T12:59:52.223Z,3.37
2018-07-30T13:00:55.582Z,3.23
2018-07-30T13:01:58.898Z,3.00
2018-07-30T13:03:02.527Z,2.87
2018-07-30T13:04:05.781Z,3.10
2018-07-30T13:05:09.132Z,3.10
2018-07-30T13:06:12.463Z,2.90
2018-07-30T13:07:15.776Z,3.27
2018-07-30T13:08:19.173Z,3.40
2018-07-30T13:09:22.448Z,3.53
2018-07-30T13:10:25.760Z,3.53
2018-07-30T13:11:29.082Z,2.90
2018-07-30T13:12:32.415Z,2.97
2018-07-30T13:13:35.814Z,3.27
2018-07-30T13:14:39.105Z,3.20
2018-07-30T13:15:42.414Z,3.23
2018-07-30T13:16:45.738Z,3.13
2018-07-30T13:17:49.068Z,3.20
2018-07-30T13:18:52.443Z,3.27
2018-07-30T13:19:55.754Z,3.47
2018-07-30T13:20:59.115Z,3.20
2018-07-30T13:22:02.395Z,3.03
2018-07-30T13:23:05.715Z,3.73
2018-07-30T13:24:09.080Z,3.20
2018-07-30T13:25:12.421Z,2.90
2018-07-30T13:26:15.865Z,3.80
2018-07-30T13:27:19.154Z,3.53
2018-07-30T13:28:22.461Z,3.33
2018-07-30T13:29:25.823Z,3.63
2018-07-30T13:30:29.164Z,3.77
2018-07-30T13:31:32.487Z,3.57
2018-07-30T13:32:35.906Z,3.30
2018-07-30T13:33:39.183Z,3.30
2018-07-30T13:34:42.594Z,3.10
2018-07-30T13:35:45.914Z,2.90
2018-07-30T13:36:49.275Z,3.10
2018-07-30T13:37:52.602Z,3.33
2018-07-30T13:38:55.906Z,2.93
2018-07-30T13:39:59.240Z,3.33
2018-07-30T13:41:02.579Z,3.10
2018-07-30T13:42:05.959Z,3.23
2018-07-30T13:43:09.306Z,3.60
2018-07-30T13:44:12.639Z,2.97
2018-07-30T13:45:15.962Z,3.00
2018-07-30T13:46:19.341Z,3.53
2018-07-30T13:47:22.654Z,3.00
2018-07-30T13:48:25.995Z,3.00
2018-07-30T13:49:29.304Z,3.20
2018-07-30T13:50:32.668Z,3.00
2018-07-30T13:51:36.008Z,3.10
2018-07-30T13:52:39.384Z,3.07
2018-07-30T13:53:42.707Z,3.80
2018-07-30T13:54:46.007Z,3.13
2018-07-30T13:55:49.366Z,3.23
2018-07-30T13:56:52.719Z,3.13
2018-07-30T13:57:56.063Z,2.97
2018-07-30T13:58:59.386Z,3.10
2018-07-30T14:00:02.834Z,3.30
2018-07-30T14:01:06.281Z,2.90
2018-07-30T14:02:09.593Z,3.20
2018-07-30T14:03:12.911Z,3.37
2018-07-30T14:04:16.232Z,3.03